sensor_id;sensor_type;location;lat;lon;timestamp;pressure;altitude;pressure_sealevel;temperature;humidity
51147;BME280;37207;53.060;18.726;2023-03-08T00:01:55;98617.95;;;-0.07;96.92
51147;BME280;37207;53.060;18.726;2023-03-08T00:04:22;98616.21;;;-0.07;96.86
51147;BME280;37207;53.060;18.726;2023-03-08T00:06:48;98616.56;;;-0.07;96.75
51147;BME280;37207;53.060;18.726;2023-03-08T00:09:14;98621.94;;;-0.07;96.72
51147;BME280;37207;53.060;18.726;2023-03-08T00:11:41;98621.70;;;-0.07;96.59
51147;BME280;37207;53.060;18.726;2023-03-08T00:14:07;98619.16;;;-0.08;96.82
51147;BME280;37207;53.060;18.726;2023-03-08T00:16:34;98623.60;;;-0.08;96.56
51147;BME280;37207;53.060;18.726;2023-03-08T00:19:01;98619.95;;;-0.08;96.68
51147;BME280;37207;53.060;18.726;2023-03-08T00:21:27;98620.52;;;-0.08;96.51
51147;BME280;37207;53.060;18.726;2023-03-08T00:23:54;98624.17;;;-0.08;96.64
51147;BME280;37207;53.060;18.726;2023-03-08T00:26:21;98628.03;;;-0.08;96.56
51147;BME280;37207;53.060;18.726;2023-03-08T00:28:47;98624.77;;;-0.08;96.45
51147;BME280;37207;53.060;18.726;2023-03-08T00:31:15;98626.60;;;-0.09;96.73
51147;BME280;37207;53.060;18.726;2023-03-08T00:33:41;98627.89;;;-0.08;96.40
51147;BME280;37207;53.060;18.726;2023-03-08T00:36:18;98626.39;;;-0.09;96.38
51147;BME280;37207;53.060;18.726;2023-03-08T00:38:46;98631.68;;;-0.08;96.33
51147;BME280;37207;53.060;18.726;2023-03-08T00:41:14;98633.23;;;-0.08;96.49
51147;BME280;37207;53.060;18.726;2023-03-08T00:43:41;98634.40;;;-0.08;96.28
51147;BME280;37207;53.060;18.726;2023-03-08T00:46:09;98637.50;;;-0.08;96.34
51147;BME280;37207;53.060;18.726;2023-03-08T00:48:36;98630.93;;;-0.09;96.19
51147;BME280;37207;53.060;18.726;2023-03-08T00:51:02;98632.65;;;-0.09;96.15
51147;BME280;37207;53.060;18.726;2023-03-08T00:53:29;98631.41;;;-0.09;96.21
51147;BME280;37207;53.060;18.726;2023-03-08T00:55:57;98630.00;;;-0.10;96.00
51147;BME280;37207;53.060;18.726;2023-03-08T00:58:27;98629.34;;;-0.11;96.18
51147;BME280;37207;53.060;18.726;2023-03-08T01:00:54;98629.77;;;-0.12;95.89
51147;BME280;37207;53.060;18.726;2023-03-08T01:03:22;98635.81;;;-0.13;96.06
51147;BME280;37207;53.060;18.726;2023-03-08T01:05:52;98636.02;;;-0.15;96.18
51147;BME280;37207;53.060;18.726;2023-03-08T01:08:20;98636.52;;;-0.17;96.00
51147;BME280;37207;53.060;18.726;2023-03-08T01:10:52;98633.67;;;-0.19;95.90
51147;BME280;37207;53.060;18.726;2023-03-08T01:13:20;98633.23;;;-0.21;95.99
51147;BME280;37207;53.060;18.726;2023-03-08T01:15:46;98632.25;;;-0.23;96.17
51147;BME280;37207;53.060;18.726;2023-03-08T01:18:13;98631.98;;;-0.24;96.04
51147;BME280;37207;53.060;18.726;2023-03-08T01:20:40;98635.45;;;-0.25;96.09
51147;BME280;37207;53.060;18.726;2023-03-08T01:23:07;98632.98;;;-0.27;96.03
51147;BME280;37207;53.060;18.726;2023-03-08T01:25:34;98636.00;;;-0.29;95.83
51147;BME280;37207;53.060;18.726;2023-03-08T01:28:01;98636.21;;;-0.30;96.03
51147;BME280;37207;53.060;18.726;2023-03-08T01:30:28;98637.15;;;-0.30;96.09
51147;BME280;37207;53.060;18.726;2023-03-08T01:32:55;98637.45;;;-0.32;96.28
51147;BME280;37207;53.060;18.726;2023-03-08T01:35:21;98642.83;;;-0.32;95.96
51147;BME280;37207;53.060;18.726;2023-03-08T01:37:51;98644.93;;;-0.33;95.95
51147;BME280;37207;53.060;18.726;2023-03-08T01:40:19;98641.27;;;-0.34;95.86
51147;BME280;37207;53.060;18.726;2023-03-08T01:42:46;98641.21;;;-0.34;96.00
51147;BME280;37207;53.060;18.726;2023-03-08T01:54:08;98646.73;;;-0.43;95.76
51147;BME280;37207;53.060;18.726;2023-03-08T01:56:36;98649.00;;;-0.45;95.71
51147;BME280;37207;53.060;18.726;2023-03-08T01:59:05;98648.79;;;-0.48;95.60
51147;BME280;37207;53.060;18.726;2023-03-08T02:01:33;98647.86;;;-0.49;95.62
51147;BME280;37207;53.060;18.726;2023-03-08T02:04:01;98654.88;;;-0.51;95.64
51147;BME280;37207;53.060;18.726;2023-03-08T02:06:28;98657.92;;;-0.51;95.49
51147;BME280;37207;53.060;18.726;2023-03-08T02:08:55;98654.70;;;-0.53;95.52
51147;BME280;37207;53.060;18.726;2023-03-08T02:11:23;98658.75;;;-0.55;95.47
51147;BME280;37207;53.060;18.726;2023-03-08T02:13:52;98665.92;;;-0.56;95.47
51147;BME280;37207;53.060;18.726;2023-03-08T02:16:20;98667.15;;;-0.57;95.41
51147;BME280;37207;53.060;18.726;2023-03-08T02:18:59;98673.42;;;-0.59;95.34
51147;BME280;37207;53.060;18.726;2023-03-08T02:21:28;98672.89;;;-0.61;95.23
51147;BME280;37207;53.060;18.726;2023-03-08T02:24:02;98673.40;;;-0.64;95.26
51147;BME280;37207;53.060;18.726;2023-03-08T02:26:30;98673.82;;;-0.66;95.13
51147;BME280;37207;53.060;18.726;2023-03-08T02:28:57;98679.51;;;-0.68;95.19
51147;BME280;37207;53.060;18.726;2023-03-08T02:31:24;98679.94;;;-0.71;95.01
51147;BME280;37207;53.060;18.726;2023-03-08T02:33:50;98684.31;;;-0.72;95.13
51147;BME280;37207;53.060;18.726;2023-03-08T02:36:17;98681.73;;;-0.73;94.88
51147;BME280;37207;53.060;18.726;2023-03-08T02:38:43;98682.86;;;-0.74;94.61
51147;BME280;37207;53.060;18.726;2023-03-08T02:41:10;98683.29;;;-0.75;94.79
51147;BME280;37207;53.060;18.726;2023-03-08T02:43:36;98687.80;;;-0.78;94.56
51147;BME280;37207;53.060;18.726;2023-03-08T02:46:03;98686.09;;;-0.79;94.56
51147;BME280;37207;53.060;18.726;2023-03-08T02:48:31;98689.55;;;-0.80;94.58
51147;BME280;37207;53.060;18.726;2023-03-08T02:50:58;98690.24;;;-0.82;94.48
51147;BME280;37207;53.060;18.726;2023-03-08T02:53:24;98692.80;;;-0.84;94.26
51147;BME280;37207;53.060;18.726;2023-03-08T02:55:51;98694.40;;;-0.85;94.22
51147;BME280;37207;53.060;18.726;2023-03-08T02:58:17;98693.52;;;-0.87;94.06
51147;BME280;37207;53.060;18.726;2023-03-08T03:00:44;98695.36;;;-0.89;93.94
51147;BME280;37207;53.060;18.726;2023-03-08T03:03:10;98699.43;;;-0.90;94.00
51147;BME280;37207;53.060;18.726;2023-03-08T03:05:44;98705.30;;;-0.91;93.71
51147;BME280;37207;53.060;18.726;2023-03-08T03:08:13;98703.19;;;-0.93;93.62
51147;BME280;37207;53.060;18.726;2023-03-08T03:10:40;98707.55;;;-0.93;93.22
51147;BME280;37207;53.060;18.726;2023-03-08T03:13:07;98708.94;;;-0.95;93.17
51147;BME280;37207;53.060;18.726;2023-03-08T03:15:36;98714.66;;;-0.97;93.45
51147;BME280;37207;53.060;18.726;2023-03-08T03:18:03;98713.42;;;-0.98;92.92
51147;BME280;37207;53.060;18.726;2023-03-08T03:20:32;98717.79;;;-1.01;92.97
51147;BME280;37207;53.060;18.726;2023-03-08T03:22:59;98722.85;;;-1.03;92.60
51147;BME280;37207;53.060;18.726;2023-03-08T03:25:36;98723.44;;;-1.06;92.59
51147;BME280;37207;53.060;18.726;2023-03-08T03:28:03;98724.21;;;-1.08;92.46
51147;BME280;37207;53.060;18.726;2023-03-08T03:30:31;98720.90;;;-1.10;92.32
51147;BME280;37207;53.060;18.726;2023-03-08T03:32:58;98723.79;;;-1.13;92.36
51147;BME280;37207;53.060;18.726;2023-03-08T03:35:28;98734.59;;;-1.14;92.08
51147;BME280;37207;53.060;18.726;2023-03-08T03:37:54;98738.86;;;-1.16;91.74
51147;BME280;37207;53.060;18.726;2023-03-08T03:40:21;98743.98;;;-1.18;91.60
51147;BME280;37207;53.060;18.726;2023-03-08T03:42:52;98748.06;;;-1.20;91.27
51147;BME280;37207;53.060;18.726;2023-03-08T03:45:18;98749.76;;;-1.21;91.26
51147;BME280;37207;53.060;18.726;2023-03-08T03:47:45;98754.86;;;-1.23;91.37
51147;BME280;37207;53.060;18.726;2023-03-08T03:50:13;98763.67;;;-1.24;91.17
51147;BME280;37207;53.060;18.726;2023-03-08T03:52:49;98767.27;;;-1.27;91.18
51147;BME280;37207;53.060;18.726;2023-03-08T03:55:15;98768.23;;;-1.30;90.97
51147;BME280;37207;53.060;18.726;2023-03-08T03:57:42;98778.09;;;-1.33;90.72
51147;BME280;37207;53.060;18.726;2023-03-08T04:00:12;98775.86;;;-1.35;90.73
51147;BME280;37207;53.060;18.726;2023-03-08T04:02:44;98780.96;;;-1.37;90.37
51147;BME280;37207;53.060;18.726;2023-03-08T04:05:12;98780.71;;;-1.40;90.43
51147;BME280;37207;53.060;18.726;2023-03-08T04:07:38;98783.14;;;-1.43;90.26
51147;BME280;37207;53.060;18.726;2023-03-08T04:10:06;98786.92;;;-1.45;90.11
51147;BME280;37207;53.060;18.726;2023-03-08T04:12:34;98786.38;;;-1.46;89.61
51147;BME280;37207;53.060;18.726;2023-03-08T04:15:00;98787.05;;;-1.50;89.58
51147;BME280;37207;53.060;18.726;2023-03-08T04:17:29;98789.21;;;-1.52;89.43
51147;BME280;37207;53.060;18.726;2023-03-08T04:19:56;98789.05;;;-1.53;89.42
51147;BME280;37207;53.060;18.726;2023-03-08T04:22:22;98790.98;;;-1.55;89.39
51147;BME280;37207;53.060;18.726;2023-03-08T04:24:53;98795.02;;;-1.57;89.35
51147;BME280;37207;53.060;18.726;2023-03-08T04:27:25;98792.61;;;-1.59;89.29
51147;BME280;37207;53.060;18.726;2023-03-08T04:29:52;98795.21;;;-1.60;88.89
51147;BME280;37207;53.060;18.726;2023-03-08T04:32:19;98797.29;;;-1.62;89.13
51147;BME280;37207;53.060;18.726;2023-03-08T04:34:49;98796.91;;;-1.64;88.69
51147;BME280;37207;53.060;18.726;2023-03-08T04:37:17;98798.20;;;-1.65;88.30
51147;BME280;37207;53.060;18.726;2023-03-08T04:39:47;98802.19;;;-1.67;88.16
51147;BME280;37207;53.060;18.726;2023-03-08T04:42:14;98801.94;;;-1.68;88.72
51147;BME280;37207;53.060;18.726;2023-03-08T04:44:40;98802.84;;;-1.70;88.35
51147;BME280;37207;53.060;18.726;2023-03-08T04:47:07;98800.42;;;-1.71;88.87
51147;BME280;37207;53.060;18.726;2023-03-08T04:49:42;98803.08;;;-1.73;88.52
51147;BME280;37207;53.060;18.726;2023-03-08T04:52:08;98803.31;;;-1.76;88.28
51147;BME280;37207;53.060;18.726;2023-03-08T04:54:36;98804.36;;;-1.77;88.08
51147;BME280;37207;53.060;18.726;2023-03-08T04:57:07;98804.11;;;-1.79;88.35
51147;BME280;37207;53.060;18.726;2023-03-08T04:59:34;98804.79;;;-1.80;88.29
51147;BME280;37207;53.060;18.726;2023-03-08T05:02:02;98809.80;;;-1.82;87.95
51147;BME280;37207;53.060;18.726;2023-03-08T05:04:29;98813.95;;;-1.83;88.11
51147;BME280;37207;53.060;18.726;2023-03-08T05:06:56;98817.11;;;-1.83;87.88
51147;BME280;37207;53.060;18.726;2023-03-08T05:09:24;98819.23;;;-1.84;88.04
51147;BME280;37207;53.060;18.726;2023-03-08T05:11:51;98826.39;;;-1.85;88.00
51147;BME280;37207;53.060;18.726;2023-03-08T05:14:18;98826.84;;;-1.85;87.73
51147;BME280;37207;53.060;18.726;2023-03-08T05:16:48;98832.34;;;-1.85;87.70
51147;BME280;37207;53.060;18.726;2023-03-08T05:19:14;98833.30;;;-1.86;87.67
51147;BME280;37207;53.060;18.726;2023-03-08T05:21:50;98835.79;;;-1.86;87.75
51147;BME280;37207;53.060;18.726;2023-03-08T05:24:16;98836.63;;;-1.86;87.75
51147;BME280;37207;53.060;18.726;2023-03-08T05:26:44;98835.39;;;-1.86;87.47
51147;BME280;37207;53.060;18.726;2023-03-08T05:29:13;98842.11;;;-1.86;87.47
51147;BME280;37207;53.060;18.726;2023-03-08T05:31:40;98846.80;;;-1.85;87.43
51147;BME280;37207;53.060;18.726;2023-03-08T05:34:09;98851.23;;;-1.85;87.65
51147;BME280;37207;53.060;18.726;2023-03-08T05:36:36;98851.61;;;-1.86;87.47
51147;BME280;37207;53.060;18.726;2023-03-08T05:39:05;98854.90;;;-1.85;87.33
51147;BME280;37207;53.060;18.726;2023-03-08T05:41:53;98858.77;;;-1.82;87.52
51147;BME280;37207;53.060;18.726;2023-03-08T05:44:27;98860.98;;;-1.82;87.73
51147;BME280;37207;53.060;18.726;2023-03-08T05:46:54;98868.83;;;-1.80;87.61
51147;BME280;37207;53.060;18.726;2023-03-08T05:49:21;98872.33;;;-1.79;87.67
51147;BME280;37207;53.060;18.726;2023-03-08T05:51:48;98874.16;;;-1.76;87.90
51147;BME280;37207;53.060;18.726;2023-03-08T05:54:15;98878.27;;;-1.72;88.18
51147;BME280;37207;53.060;18.726;2023-03-08T05:56:42;98880.77;;;-1.69;87.96
51147;BME280;37207;53.060;18.726;2023-03-08T05:59:19;98881.65;;;-1.65;88.05
51147;BME280;37207;53.060;18.726;2023-03-08T06:01:46;98884.02;;;-1.62;88.04
51147;BME280;37207;53.060;18.726;2023-03-08T06:04:20;98884.27;;;-1.59;88.13
51147;BME280;37207;53.060;18.726;2023-03-08T06:06:48;98891.11;;;-1.55;88.02
51147;BME280;37207;53.060;18.726;2023-03-08T06:09:14;98900.89;;;-1.40;88.23
51147;BME280;37207;53.060;18.726;2023-03-08T06:11:42;98902.02;;;-1.25;88.20
51147;BME280;37207;53.060;18.726;2023-03-08T06:14:12;98907.85;;;-1.20;87.80
51147;BME280;37207;53.060;18.726;2023-03-08T06:16:39;98910.16;;;-1.16;88.14
51147;BME280;37207;53.060;18.726;2023-03-08T06:19:05;98916.84;;;-0.98;88.00
51147;BME280;37207;53.060;18.726;2023-03-08T06:21:32;98919.67;;;-0.57;88.86
51147;BME280;37207;53.060;18.726;2023-03-08T06:24:01;98930.02;;;-0.32;87.73
51147;BME280;37207;53.060;18.726;2023-03-08T06:26:28;98931.76;;;-0.18;87.14
51147;BME280;37207;53.060;18.726;2023-03-08T06:28:55;98937.57;;;-0.13;86.87
51147;BME280;37207;53.060;18.726;2023-03-08T06:31:22;98941.25;;;-0.10;86.67
51147;BME280;37207;53.060;18.726;2023-03-08T06:33:49;98941.94;;;0.05;87.11
51147;BME280;37207;53.060;18.726;2023-03-08T06:36:20;98944.81;;;0.44;86.81
51147;BME280;37207;53.060;18.726;2023-03-08T06:38:48;98946.67;;;0.73;86.30
51147;BME280;37207;53.060;18.726;2023-03-08T06:41:16;98953.81;;;0.83;85.69
51147;BME280;37207;53.060;18.726;2023-03-08T06:43:45;98955.21;;;1.10;85.69
51147;BME280;37207;53.060;18.726;2023-03-08T06:46:13;98959.01;;;1.27;84.91
51147;BME280;37207;53.060;18.726;2023-03-08T06:48:43;98963.83;;;1.22;84.27
51147;BME280;37207;53.060;18.726;2023-03-08T06:51:10;98963.34;;;1.38;84.49
51147;BME280;37207;53.060;18.726;2023-03-08T06:53:37;98959.91;;;1.91;84.07
51147;BME280;37207;53.060;18.726;2023-03-08T06:56:06;98966.05;;;2.41;82.93
51147;BME280;37207;53.060;18.726;2023-03-08T06:58:34;98971.54;;;2.30;81.24
51147;BME280;37207;53.060;18.726;2023-03-08T07:01:02;98974.01;;;1.97;80.69
51147;BME280;37207;53.060;18.726;2023-03-08T07:03:35;98977.44;;;1.79;81.21
51147;BME280;37207;53.060;18.726;2023-03-08T07:06:05;98980.36;;;1.70;81.44
51147;BME280;37207;53.060;18.726;2023-03-08T07:08:33;98978.75;;;1.69;80.87
51147;BME280;37207;53.060;18.726;2023-03-08T07:11:00;98982.41;;;1.85;81.27
51147;BME280;37207;53.060;18.726;2023-03-08T07:13:28;98987.48;;;2.71;81.53
51147;BME280;37207;53.060;18.726;2023-03-08T07:15:55;98987.06;;;3.69;80.30
51147;BME280;37207;53.060;18.726;2023-03-08T07:18:23;98991.64;;;3.90;79.11
51147;BME280;37207;53.060;18.726;2023-03-08T07:20:55;98994.15;;;4.14;78.99
51147;BME280;37207;53.060;18.726;2023-03-08T07:23:22;98995.56;;;4.44;77.30
51147;BME280;37207;53.060;18.726;2023-03-08T07:25:49;98999.98;;;4.64;75.75
51147;BME280;37207;53.060;18.726;2023-03-08T07:28:15;98998.21;;;5.39;75.31
51147;BME280;37207;53.060;18.726;2023-03-08T07:30:46;98999.70;;;6.81;73.84
51147;BME280;37207;53.060;18.726;2023-03-08T07:33:16;99001.92;;;7.75;71.15
51147;BME280;37207;53.060;18.726;2023-03-08T07:35:43;99009.77;;;8.74;68.77
51147;BME280;37207;53.060;18.726;2023-03-08T07:38:13;99013.67;;;9.87;66.46
51147;BME280;37207;53.060;18.726;2023-03-08T07:40:40;99019.34;;;10.10;65.61
51147;BME280;37207;53.060;18.726;2023-03-08T07:43:07;99019.66;;;11.34;63.37
51147;BME280;37207;53.060;18.726;2023-03-08T07:45:37;99020.98;;;12.71;62.16
51147;BME280;37207;53.060;18.726;2023-03-08T07:48:07;99020.68;;;13.12;60.69
51147;BME280;37207;53.060;18.726;2023-03-08T07:50:34;99024.60;;;13.57;58.11
51147;BME280;37207;53.060;18.726;2023-03-08T07:53:00;99029.14;;;14.69;56.13
51147;BME280;37207;53.060;18.726;2023-03-08T07:55:27;99032.77;;;15.61;53.01
51147;BME280;37207;53.060;18.726;2023-03-08T07:57:54;99026.39;;;15.51;50.57
51147;BME280;37207;53.060;18.726;2023-03-08T08:00:21;99027.36;;;16.16;51.77
51147;BME280;37207;53.060;18.726;2023-03-08T08:02:48;99031.54;;;17.17;49.88
51147;BME280;37207;53.060;18.726;2023-03-08T08:05:14;99036.49;;;17.19;47.38
51147;BME280;37207;53.060;18.726;2023-03-08T08:07:41;99035.86;;;17.54;46.79
51147;BME280;37207;53.060;18.726;2023-03-08T08:10:08;99036.34;;;18.54;48.07
51147;BME280;37207;53.060;18.726;2023-03-08T08:12:35;99037.81;;;19.45;45.81
51147;BME280;37207;53.060;18.726;2023-03-08T08:15:01;99040.30;;;19.93;44.26
51147;BME280;37207;53.060;18.726;2023-03-08T08:17:28;99041.94;;;19.57;43.66
51147;BME280;37207;53.060;18.726;2023-03-08T08:19:54;99046.60;;;17.95;43.09
51147;BME280;37207;53.060;18.726;2023-03-08T08:22:21;99044.20;;;15.80;42.15
51147;BME280;37207;53.060;18.726;2023-03-08T08:24:48;99047.55;;;13.82;43.71
51147;BME280;37207;53.060;18.726;2023-03-08T08:27:14;99052.67;;;12.12;44.24
51147;BME280;37207;53.060;18.726;2023-03-08T08:29:41;99049.88;;;10.70;45.63
51147;BME280;37207;53.060;18.726;2023-03-08T08:32:11;99058.59;;;10.00;47.89
51147;BME280;37207;53.060;18.726;2023-03-08T08:34:38;99062.56;;;10.41;47.61
51147;BME280;37207;53.060;18.726;2023-03-08T08:37:04;99056.81;;;11.78;47.65
51147;BME280;37207;53.060;18.726;2023-03-08T08:39:31;99057.20;;;13.63;47.20
51147;BME280;37207;53.060;18.726;2023-03-08T08:41:58;99051.07;;;15.23;45.65
51147;BME280;37207;53.060;18.726;2023-03-08T08:44:24;99057.39;;;16.72;43.93
51147;BME280;37207;53.060;18.726;2023-03-08T08:46:51;99053.48;;;17.81;41.39
51147;BME280;37207;53.060;18.726;2023-03-08T08:49:17;99052.40;;;18.45;42.58
51147;BME280;37207;53.060;18.726;2023-03-08T08:51:44;99052.48;;;18.78;40.26
51147;BME280;37207;53.060;18.726;2023-03-08T08:54:10;99053.68;;;18.49;39.35
51147;BME280;37207;53.060;18.726;2023-03-08T08:56:37;99056.23;;;18.63;38.28
51147;BME280;37207;53.060;18.726;2023-03-08T08:59:09;99051.42;;;18.10;36.79
51147;BME280;37207;53.060;18.726;2023-03-08T09:01:38;99052.73;;;17.73;36.35
51147;BME280;37207;53.060;18.726;2023-03-08T09:04:10;99048.11;;;17.58;34.42
51147;BME280;37207;53.060;18.726;2023-03-08T09:06:39;99046.81;;;17.53;37.38
51147;BME280;37207;53.060;18.726;2023-03-08T09:09:06;99045.53;;;17.95;38.43
51147;BME280;37207;53.060;18.726;2023-03-08T09:11:33;99050.90;;;16.47;38.31
51147;BME280;37207;53.060;18.726;2023-03-08T09:14:00;99053.91;;;15.32;38.19
51147;BME280;37207;53.060;18.726;2023-03-08T09:16:30;99052.29;;;16.30;39.03
51147;BME280;37207;53.060;18.726;2023-03-08T09:18:59;99053.60;;;16.18;38.69
51147;BME280;37207;53.060;18.726;2023-03-08T09:21:27;99051.09;;;16.04;39.39
51147;BME280;37207;53.060;18.726;2023-03-08T09:23:55;99054.55;;;14.72;38.67
51147;BME280;37207;53.060;18.726;2023-03-08T09:26:21;99054.13;;;13.72;38.82
51147;BME280;37207;53.060;18.726;2023-03-08T09:28:48;99053.70;;;13.71;38.86
51147;BME280;37207;53.060;18.726;2023-03-08T09:31:16;99053.36;;;14.62;37.96
51147;BME280;37207;53.060;18.726;2023-03-08T09:33:44;99057.35;;;14.72;38.28
51147;BME280;37207;53.060;18.726;2023-03-08T09:36:11;99058.93;;;15.82;37.90
51147;BME280;37207;53.060;18.726;2023-03-08T09:38:38;99067.95;;;15.88;38.33
51147;BME280;37207;53.060;18.726;2023-03-08T09:46:44;99061.21;;;15.82;36.01
51147;BME280;37207;53.060;18.726;2023-03-08T09:49:18;99062.96;;;16.56;36.01
51147;BME280;37207;53.060;18.726;2023-03-08T09:51:50;99070.71;;;15.94;36.11
51147;BME280;37207;53.060;18.726;2023-03-08T09:54:22;99072.10;;;16.02;35.28
51147;BME280;37207;53.060;18.726;2023-03-08T09:56:51;99073.39;;;15.83;35.73
51147;BME280;37207;53.060;18.726;2023-03-08T09:59:27;99074.95;;;15.30;35.55
51147;BME280;37207;53.060;18.726;2023-03-08T10:02:12;99071.85;;;13.83;36.08
51147;BME280;37207;53.060;18.726;2023-03-08T10:07:57;99070.78;;;11.91;39.06
51147;BME280;37207;53.060;18.726;2023-03-08T10:13:37;99068.89;;;10.43;40.46
51147;BME280;37207;53.060;18.726;2023-03-08T10:16:25;99073.46;;;9.92;41.89
51147;BME280;37207;53.060;18.726;2023-03-08T10:19:15;99066.35;;;9.55;42.50
51147;BME280;37207;53.060;18.726;2023-03-08T10:21:44;99067.80;;;8.93;42.20
51147;BME280;37207;53.060;18.726;2023-03-08T10:24:21;99070.77;;;8.30;42.12
51147;BME280;37207;53.060;18.726;2023-03-08T10:26:53;99074.20;;;7.93;42.91
51147;BME280;37207;53.060;18.726;2023-03-08T10:29:25;99080.52;;;7.47;43.83
51147;BME280;37207;53.060;18.726;2023-03-08T10:31:52;99073.17;;;7.43;44.30
51147;BME280;37207;53.060;18.726;2023-03-08T10:34:28;99071.90;;;7.68;45.14
51147;BME280;37207;53.060;18.726;2023-03-08T10:37:03;99078.61;;;7.84;46.10
51147;BME280;37207;53.060;18.726;2023-03-08T10:39:31;99077.35;;;7.72;46.58
51147;BME280;37207;53.060;18.726;2023-03-08T10:42:00;99079.02;;;7.81;46.89
51147;BME280;37207;53.060;18.726;2023-03-08T10:44:40;99072.46;;;8.05;47.62
51147;BME280;37207;53.060;18.726;2023-03-08T10:47:32;99069.38;;;8.44;48.14
51147;BME280;37207;53.060;18.726;2023-03-08T10:50:20;99070.13;;;8.81;48.27
51147;BME280;37207;53.060;18.726;2023-03-08T10:52:49;99074.42;;;9.13;48.20
51147;BME280;37207;53.060;18.726;2023-03-08T10:55:25;99075.87;;;8.99;47.19
51147;BME280;37207;53.060;18.726;2023-03-08T10:57:59;99079.98;;;8.59;46.45
51147;BME280;37207;53.060;18.726;2023-03-08T11:00:34;99080.05;;;8.08;45.67
51147;BME280;37207;53.060;18.726;2023-03-08T11:03:21;99080.77;;;7.52;46.52
51147;BME280;37207;53.060;18.726;2023-03-08T11:05:58;99094.09;;;7.06;46.88
51147;BME280;37207;53.060;18.726;2023-03-08T11:08:52;99086.73;;;6.67;46.75
51147;BME280;37207;53.060;18.726;2023-03-08T11:11:20;99088.90;;;6.44;47.63
51147;BME280;37207;53.060;18.726;2023-03-08T11:13:48;99087.38;;;6.49;47.44
51147;BME280;37207;53.060;18.726;2023-03-08T11:25:12;99076.92;;;6.03;48.07
51147;BME280;37207;53.060;18.726;2023-03-08T11:36:23;99070.10;;;5.82;50.10
51147;BME280;37207;53.060;18.726;2023-03-08T11:39:42;99070.84;;;5.81;50.36
51147;BME280;37207;53.060;18.726;2023-03-08T11:50:12;99073.26;;;6.65;49.42
51147;BME280;37207;53.060;18.726;2023-03-08T11:58:39;99078.76;;;5.35;50.99
51147;BME280;37207;53.060;18.726;2023-03-08T12:01:17;99070.53;;;5.04;51.66
51147;BME280;37207;53.060;18.726;2023-03-08T12:03:48;99074.07;;;5.05;52.56
51147;BME280;37207;53.060;18.726;2023-03-08T12:06:28;99078.27;;;5.26;52.92
51147;BME280;37207;53.060;18.726;2023-03-08T12:09:04;99069.84;;;5.71;53.13
51147;BME280;37207;53.060;18.726;2023-03-08T12:12:07;99070.02;;;6.18;52.91
51147;BME280;37207;53.060;18.726;2023-03-08T12:15:30;99072.51;;;6.31;52.50
51147;BME280;37207;53.060;18.726;2023-03-08T12:17:41;99066.98;;;6.70;51.68
51147;BME280;37207;53.060;18.726;2023-03-08T12:20:13;99067.38;;;6.89;51.45
51147;BME280;37207;53.060;18.726;2023-03-08T12:22:45;99065.50;;;6.75;51.85
51147;BME280;37207;53.060;18.726;2023-03-08T12:25:21;99062.19;;;6.63;51.79
51147;BME280;37207;53.060;18.726;2023-03-08T12:28:10;99066.66;;;6.43;51.79
51147;BME280;37207;53.060;18.726;2023-03-08T12:30:46;99063.55;;;6.52;51.13
51147;BME280;37207;53.060;18.726;2023-03-08T12:33:18;99057.30;;;7.19;50.78
51147;BME280;37207;53.060;18.726;2023-03-08T12:36:04;99056.65;;;7.88;49.36
51147;BME280;37207;53.060;18.726;2023-03-08T12:38:37;99057.70;;;8.06;49.21
51147;BME280;37207;53.060;18.726;2023-03-08T12:41:17;99058.02;;;8.01;48.85
51147;BME280;37207;53.060;18.726;2023-03-08T12:43:45;99052.67;;;7.85;48.99
51147;BME280;37207;53.060;18.726;2023-03-08T12:46:12;99053.61;;;7.71;48.82
51147;BME280;37207;53.060;18.726;2023-03-08T12:48:47;99052.75;;;7.33;48.97
51147;BME280;37207;53.060;18.726;2023-03-08T12:51:20;99051.30;;;6.98;49.30
51147;BME280;37207;53.060;18.726;2023-03-08T12:56:51;99063.19;;;6.20;49.88
51147;BME280;37207;53.060;18.726;2023-03-08T13:02:00;99069.16;;;5.30;53.22
51147;BME280;37207;53.060;18.726;2023-03-08T13:04:37;99061.34;;;5.00;54.79
51147;BME280;37207;53.060;18.726;2023-03-08T13:14:42;99052.23;;;4.72;57.33
51147;BME280;37207;53.060;18.726;2023-03-08T13:17:30;99050.34;;;5.00;57.24
51147;BME280;37207;53.060;18.726;2023-03-08T13:20:14;99051.23;;;5.29;57.45
51147;BME280;37207;53.060;18.726;2023-03-08T13:28:34;99054.81;;;5.24;57.55
51147;BME280;37207;53.060;18.726;2023-03-08T13:31:03;99053.44;;;5.12;57.79
51147;BME280;37207;53.060;18.726;2023-03-08T13:33:38;99046.73;;;4.97;58.01
51147;BME280;37207;53.060;18.726;2023-03-08T13:36:19;99041.73;;;4.83;58.36
51147;BME280;37207;53.060;18.726;2023-03-08T13:41:37;99034.90;;;4.56;59.08
51147;BME280;37207;53.060;18.726;2023-03-08T13:44:14;99026.95;;;4.49;59.24
51147;BME280;37207;53.060;18.726;2023-03-08T13:46:42;99028.33;;;4.49;59.40
51147;BME280;37207;53.060;18.726;2023-03-08T13:51:51;99029.45;;;4.41;59.12
51147;BME280;37207;53.060;18.726;2023-03-08T13:56:57;99031.34;;;4.28;59.42
51147;BME280;37207;53.060;18.726;2023-03-08T13:59:26;99030.52;;;4.27;59.51
51147;BME280;37207;53.060;18.726;2023-03-08T14:01:53;99028.60;;;4.28;59.64
51147;BME280;37207;53.060;18.726;2023-03-08T14:04:25;99024.55;;;4.25;59.56
51147;BME280;37207;53.060;18.726;2023-03-08T14:06:55;99019.95;;;4.28;60.15
51147;BME280;37207;53.060;18.726;2023-03-08T14:09:22;99019.94;;;4.41;60.38
51147;BME280;37207;53.060;18.726;2023-03-08T14:12:01;99013.97;;;4.50;60.38
51147;BME280;37207;53.060;18.726;2023-03-08T14:14:32;99011.09;;;4.51;59.87
51147;BME280;37207;53.060;18.726;2023-03-08T14:16:59;99008.92;;;4.54;60.18
51147;BME280;37207;53.060;18.726;2023-03-08T14:19:29;99009.20;;;4.65;60.70
51147;BME280;37207;53.060;18.726;2023-03-08T14:22:01;99014.04;;;4.78;60.40
51147;BME280;37207;53.060;18.726;2023-03-08T14:24:33;99013.63;;;4.90;60.42
51147;BME280;37207;53.060;18.726;2023-03-08T14:27:16;99017.23;;;5.04;60.58